Time;durP1;ratioP1;P1;durP2;ratioP2;P2;SDS_P1;SDS_P2;PMS_P1;PMS_P2;Temp;Humidity;BMP_temperature;BMP_pressure;BME280_temperature;BME280_humidity;BME280_pressure;Samples;Min_cycle;Max_cycle;Signal;HPM_P1;HPM_P2
2021/05/13 00:00:19;;;;;;;8.32;2.08;;;15.40;96.70;;;;;;5094101;27;20040;-78
2021/05/13 00:02:48;;;;;;;6.63;1.80;;;15.40;96.70;;;;;;5103098;28;20039;-77
2021/05/13 00:05:18;;;;;;;9.75;1.50;;;15.40;96.70;;;;;;5084757;28;20050;-77
2021/05/13 00:07:47;;;;;;;6.40;1.63;;;15.40;96.70;;;;;;5097022;28;20040;-78
2021/05/13 00:10:20;;;;;;;7.95;1.70;;;15.40;96.70;;;;;;5101121;28;20032;-77
2021/05/13 00:12:54;;;;;;;5.55;1.58;;;15.40;96.70;;;;;;5102563;28;20390;-78
2021/05/13 00:15:27;;;;;;;9.88;1.95;;;15.50;96.70;;;;;;5104711;27;20043;-78
2021/05/13 00:17:57;;;;;;;7.72;2.15;;;15.50;96.70;;;;;;5099708;28;20039;-77
2021/05/13 00:20:29;;;;;;;7.53;2.33;;;15.50;96.70;;;;;;5102908;28;20581;-78
2021/05/13 00:22:59;;;;;;;11.43;2.10;;;15.50;96.70;;;;;;5116891;27;20448;-77
2021/05/13 00:25:28;;;;;;;9.43;2.00;;;15.50;96.70;;;;;;5097393;28;20462;-78
2021/05/13 00:27:57;;;;;;;6.10;2.28;;;15.40;96.70;;;;;;5102550;28;20506;-78
2021/05/13 00:30:26;;;;;;;11.05;2.10;;;15.40;96.70;;;;;;5100107;28;20043;-78
2021/05/13 00:32:55;;;;;;;14.45;2.35;;;15.40;96.70;;;;;;5104852;28;20557;-78
2021/05/13 00:35:23;;;;;;;9.13;1.95;;;15.50;96.70;;;;;;5097690;28;20092;-78
2021/05/13 00:37:52;;;;;;;7.72;1.67;;;15.30;96.70;;;;;;5120297;27;20413;-77
2021/05/13 00:40:21;;;;;;;6.82;1.45;;;15.30;96.70;;;;;;5101887;28;20138;-78
2021/05/13 00:42:50;;;;;;;7.78;1.65;;;15.30;96.70;;;;;;5101324;28;20047;-78
2021/05/13 00:45:21;;;;;;;5.72;1.73;;;15.30;96.70;;;;;;5085817;28;20039;-77
2021/05/13 00:50:28;;;;;;;10.52;2.25;;;15.30;96.70;;;;;;5100834;28;20044;-77
2021/05/13 00:53:01;;;;;;;8.90;1.45;;;15.40;96.70;;;;;;5085014;28;20146;-78
2021/05/13 00:55:31;;;;;;;5.95;1.23;;;15.30;96.70;;;;;;5102438;28;20050;-78
2021/05/13 00:58:01;;;;;;;7.53;1.58;;;15.30;96.70;;;;;;5099413;28;20093;-77
2021/05/13 01:03:02;;;;;;;10.02;1.58;;;15.20;96.70;;;;;;5101655;28;20054;-77
2021/05/13 01:05:34;;;;;;;5.30;1.40;;;15.30;96.70;;;;;;5103025;28;20047;-78
2021/05/13 01:08:05;;;;;;;7.00;1.40;;;15.30;96.70;;;;;;5102294;28;20036;-78
2021/05/13 01:10:35;;;;;;;4.15;1.17;;;15.30;96.70;;;;;;5103923;27;20055;-78
2021/05/13 01:13:18;;;;;;;6.85;1.30;;;15.30;96.70;;;;;;5101214;28;20031;-78
2021/05/13 01:18:36;;;;;;;5.30;1.05;;;15.20;96.70;;;;;;5101080;28;20039;-78
2021/05/13 01:21:04;;;;;;;7.28;1.55;;;15.30;96.70;;;;;;5079249;28;20044;-78
2021/05/13 01:23:34;;;;;;;7.97;1.30;;;15.20;96.70;;;;;;5100398;28;20740;-78
2021/05/13 01:26:06;;;;;;;6.55;1.48;;;15.30;96.70;;;;;;5096614;28;20505;-78
2021/05/13 01:28:34;;;;;;;8.65;1.27;;;15.30;96.70;;;;;;5101236;28;20044;-78
2021/05/13 01:31:03;;;;;;;5.65;1.52;;;15.30;96.70;;;;;;5103580;28;20552;-78
2021/05/13 01:33:31;;;;;;;6.13;1.85;;;15.40;96.70;;;;;;5103623;28;20108;-78
2021/05/13 01:36:00;;;;;;;5.90;0.95;;;15.40;96.70;;;;;;5102401;28;20473;-78
2021/05/13 01:38:30;;;;;;;7.88;1.40;;;15.30;96.70;;;;;;5102267;28;20673;-78
2021/05/13 01:41:02;;;;;;;13.65;2.53;;;15.20;96.70;;;;;;5098661;28;21261;-78
2021/05/13 01:43:33;;;;;;;5.50;1.20;;;15.20;96.70;;;;;;5081987;28;20075;-77
2021/05/13 01:46:03;;;;;;;4.80;1.13;;;15.20;96.70;;;;;;5095012;28;20668;-78
2021/05/13 01:48:37;;;;;;;7.63;1.17;;;15.20;96.70;;;;;;5097150;28;20054;-77
2021/05/13 01:51:07;;;;;;;7.22;1.35;;;15.30;96.70;;;;;;5100391;28;20063;-78
2021/05/13 01:53:38;;;;;;;4.75;1.27;;;15.20;96.70;;;;;;5101301;28;20079;-78
2021/05/13 01:56:09;;;;;;;5.53;1.35;;;15.10;96.70;;;;;;5100374;28;20039;-78
2021/05/13 01:58:49;;;;;;;5.43;0.93;;;15.10;96.70;;;;;;5102060;28;20039;-78
2021/05/13 02:01:17;;;;;;;3.05;0.85;;;15.10;96.70;;;;;;5097457;28;20145;-78
2021/05/13 02:03:46;;;;;;;3.22;0.95;;;15.00;96.70;;;;;;5102708;28;20127;-78
2021/05/13 02:06:15;;;;;;;13.30;2.75;;;15.00;96.70;;;;;;5100680;28;20524;-78
2021/05/13 02:08:43;;;;;;;4.97;1.30;;;15.00;96.70;;;;;;5101457;28;20140;-78
2021/05/13 02:11:12;;;;;;;7.72;1.00;;;14.90;96.70;;;;;;5084005;28;20043;-78
2021/05/13 02:13:41;;;;;;;3.72;0.80;;;14.90;96.70;;;;;;5104366;27;20070;-79
2021/05/13 02:16:11;;;;;;;6.70;1.20;;;14.80;96.70;;;;;;5105333;27;20043;-78
2021/05/13 02:18:41;;;;;;;5.80;1.00;;;14.80;96.70;;;;;;5093279;28;20385;-77
2021/05/13 02:21:11;;;;;;;5.47;0.85;;;14.80;96.70;;;;;;5097944;28;20040;-77
2021/05/13 02:23:43;;;;;;;4.78;0.95;;;14.80;96.70;;;;;;5092895;28;20062;-77
2021/05/13 02:26:16;;;;;;;6.22;1.65;;;14.90;96.70;;;;;;5095471;28;20035;-78
2021/05/13 02:28:46;;;;;;;5.00;1.15;;;14.70;96.70;;;;;;5095564;28;20046;-78
2021/05/13 02:31:15;;;;;;;5.90;1.02;;;14.70;96.70;;;;;;5094155;28;20493;-78
2021/05/13 02:33:46;;;;;;;7.00;1.30;;;14.70;96.70;;;;;;5100503;28;20374;-78
2021/05/13 02:36:16;;;;;;;6.75;1.13;;;14.70;96.70;;;;;;5099576;28;20532;-77
2021/05/13 02:38:45;;;;;;;4.45;1.30;;;14.70;96.70;;;;;;5099665;28;20516;-78
2021/05/13 02:41:17;;;;;;;5.93;1.02;;;14.80;96.70;;;;;;5099171;28;20039;-78
2021/05/13 02:43:46;;;;;;;8.43;1.65;;;14.80;96.70;;;;;;5100917;28;20419;-78
2021/05/13 02:46:16;;;;;;;6.05;1.40;;;14.80;96.70;;;;;;5098794;28;20043;-77
2021/05/13 02:48:45;;;;;;;4.43;1.05;;;14.80;96.70;;;;;;5099258;28;20056;-78
2021/05/13 02:51:13;;;;;;;7.47;1.00;;;14.70;96.70;;;;;;5100680;28;20071;-78
2021/05/13 02:53:42;;;;;;;6.82;1.50;;;14.80;96.70;;;;;;5081794;28;20517;-77
2021/05/13 02:56:20;;;;;;;4.60;1.30;;;14.80;96.70;;;;;;5093812;28;20051;-78
2021/05/13 02:58:51;;;;;;;5.68;1.35;;;14.80;96.70;;;;;;5098831;28;20097;-78
2021/05/13 03:01:29;;;;;;;4.20;1.30;;;14.70;96.70;;;;;;5096771;28;20063;-77
2021/05/13 03:04:12;;;;;;;4.65;0.90;;;14.70;96.70;;;;;;5095384;27;20599;-78
2021/05/13 03:06:53;;;;;;;8.35;1.42;;;14.60;96.70;;;;;;5099606;28;20039;-76
2021/05/13 03:09:29;;;;;;;5.15;1.10;;;14.60;96.70;;;;;;5093084;28;20359;-76
2021/05/13 03:11:58;;;;;;;6.30;1.45;;;14.60;96.70;;;;;;5090455;28;20056;-76
2021/05/13 03:14:27;;;;;;;5.07;1.27;;;14.60;96.70;;;;;;5101646;27;20054;-76
2021/05/13 03:16:56;;;;;;;5.05;1.23;;;14.50;96.70;;;;;;5096957;28;20044;-76
2021/05/13 03:19:56;;;;;;;6.03;1.20;;;14.50;96.70;;;;;;5097657;27;20063;-76
2021/05/13 03:22:18;;;;;;;6.90;1.50;;;14.50;96.70;;;;;;5089437;28;20043;-76
2021/05/13 03:24:53;;;;;;;3.30;1.40;;;14.50;96.70;;;;;;5098709;28;20476;-76
2021/05/13 03:29:55;;;;;;;5.57;1.35;;;14.60;96.70;;;;;;5099531;28;20428;-76
2021/05/13 03:32:25;;;;;;;8.23;1.63;;;14.60;96.70;;;;;;5081036;28;20047;-76
2021/05/13 03:34:55;;;;;;;5.20;1.25;;;14.70;96.70;;;;;;5100584;28;20093;-76
2021/05/13 03:37:27;;;;;;;8.55;1.50;;;14.60;96.70;;;;;;5095673;28;20389;-76
2021/05/13 03:39:56;;;;;;;6.07;1.25;;;14.60;96.70;;;;;;5102168;28;20327;-76
2021/05/13 03:42:27;;;;;;;6.35;1.52;;;14.60;96.70;;;;;;5096433;28;20048;-76
2021/05/13 03:44:56;;;;;;;3.47;1.08;;;14.70;96.70;;;;;;5099441;28;20067;-76
2021/05/13 03:47:26;;;;;;;4.13;1.25;;;14.60;96.70;;;;;;5096046;28;20522;-77
2021/05/13 03:49:57;;;;;;;5.22;1.17;;;14.70;96.70;;;;;;5100588;28;20051;-76
2021/05/13 03:52:26;;;;;;;6.57;1.65;;;14.60;96.70;;;;;;5096151;28;20126;-76
2021/05/13 03:54:55;;;;;;;5.03;1.02;;;14.70;96.70;;;;;;5101509;28;20112;-76
2021/05/13 03:57:23;;;;;;;7.30;1.38;;;14.70;96.70;;;;;;5095557;28;20134;-76
2021/05/13 03:59:56;;;;;;;8.43;1.50;;;14.70;96.70;;;;;;5100446;28;20055;-76
2021/05/13 04:02:43;;;;;;;6.50;1.65;;;14.70;96.70;;;;;;5099649;28;20523;-76
2021/05/13 04:05:12;;;;;;;6.68;1.30;;;14.80;96.70;;;;;;5080063;28;20167;-76
2021/05/13 04:07:40;;;;;;;5.03;1.05;;;14.80;96.70;;;;;;5098850;28;20537;-76
2021/05/13 04:10:16;;;;;;;11.27;1.23;;;14.80;96.70;;;;;;5097523;28;20036;-76
2021/05/13 04:12:44;;;;;;;8.00;1.35;;;14.80;96.70;;;;;;5082006;28;20054;-77
2021/05/13 04:15:15;;;;;;;7.55;1.27;;;14.70;96.70;;;;;;5096396;28;20515;-76
2021/05/13 04:17:44;;;;;;;5.72;1.83;;;14.70;96.70;;;;;;5100383;28;20096;-77
2021/05/13 04:20:14;;;;;;;5.57;1.40;;;14.80;96.70;;;;;;5097396;28;20039;-76
2021/05/13 04:22:44;;;;;;;5.85;1.23;;;14.80;96.70;;;;;;5098730;28;20040;-77
2021/05/13 04:25:14;;;;;;;7.03;1.25;;;14.90;96.70;;;;;;5097788;28;20032;-76
2021/05/13 04:27:44;;;;;;;6.53;1.30;;;14.90;96.70;;;;;;5098816;28;20511;-76
2021/05/13 04:30:15;;;;;;;7.18;1.23;;;14.90;96.70;;;;;;5093311;28;20044;-77
2021/05/13 04:32:45;;;;;;;7.57;1.20;;;14.80;96.70;;;;;;5098039;28;20092;-76
2021/05/13 04:35:14;;;;;;;8.70;1.30;;;14.80;96.70;;;;;;5098013;28;20378;-76
2021/05/13 04:37:49;;;;;;;4.03;1.23;;;14.80;96.70;;;;;;5100222;28;20032;-76
2021/05/13 04:40:18;;;;;;;5.55;1.17;;;14.80;96.70;;;;;;5099762;28;20035;-76
2021/05/13 04:42:46;;;;;;;4.95;1.00;;;14.90;96.70;;;;;;5102957;28;20047;-76
2021/05/13 04:45:15;;;;;;;6.45;1.60;;;14.90;96.70;;;;;;5102277;28;20043;-76
2021/05/13 04:50:12;;;;;;;6.10;1.40;;;14.80;96.70;;;;;;5099399;28;20044;-76
2021/05/13 04:52:40;;;;;;;8.15;1.30;;;14.70;96.70;;;;;;5100373;28;20050;-76
2021/05/13 04:55:09;;;;;;;7.65;1.23;;;14.80;96.70;;;;;;5100030;28;20063;-76
2021/05/13 04:57:38;;;;;;;5.78;0.98;;;14.80;96.70;;;;;;5101616;28;20221;-76
2021/05/13 05:00:08;;;;;;;6.80;0.90;;;14.80;96.70;;;;;;5101307;28;20511;-77
2021/05/13 05:02:38;;;;;;;5.60;1.27;;;14.80;96.70;;;;;;5102065;28;20412;-76
2021/05/13 05:05:07;;;;;;;6.68;1.38;;;14.90;96.70;;;;;;5101964;28;20496;-76
2021/05/13 05:07:35;;;;;;;3.95;1.25;;;14.90;96.70;;;;;;5100072;28;20043;-76
2021/05/13 05:10:04;;;;;;;7.90;1.10;;;14.90;96.70;;;;;;5099824;28;20075;-76
2021/05/13 05:12:32;;;;;;;8.18;1.63;;;14.90;96.70;;;;;;5103612;28;20039;-76
2021/05/13 05:15:00;;;;;;;6.05;1.23;;;14.90;96.70;;;;;;5104140;27;20416;-76
2021/05/13 05:17:28;;;;;;;3.38;1.10;;;14.90;96.70;;;;;;5103493;27;20044;-77
2021/05/13 05:19:58;;;;;;;6.00;1.20;;;14.90;96.70;;;;;;5100208;28;20040;-76
2021/05/13 05:22:26;;;;;;;5.00;1.52;;;14.90;96.70;;;;;;5101227;28;20040;-77
2021/05/13 05:24:54;;;;;;;4.35;1.45;;;14.80;96.70;;;;;;5102701;28;20044;-77
2021/05/13 05:27:22;;;;;;;6.65;1.08;;;14.90;96.70;;;;;;5099453;28;20422;-76
2021/05/13 05:29:50;;;;;;;8.60;1.42;;;14.90;96.70;;;;;;5102551;28;20404;-76
2021/05/13 05:32:19;;;;;;;5.13;1.25;;;14.80;96.70;;;;;;5101251;28;20042;-76
2021/05/13 05:34:48;;;;;;;7.20;1.38;;;14.80;96.70;;;;;;5102820;28;20058;-76
2021/05/13 05:37:17;;;;;;;7.78;1.65;;;14.80;96.70;;;;;;5085291;28;20040;-77
2021/05/13 05:39:45;;;;;;;6.25;1.20;;;14.90;96.70;;;;;;5084503;28;20040;-76
2021/05/13 05:42:13;;;;;;;4.93;1.20;;;14.80;96.70;;;;;;5096992;28;20034;-76
2021/05/13 05:44:41;;;;;;;5.40;1.27;;;14.90;96.70;;;;;;5100799;28;20044;-76
2021/05/13 05:47:12;;;;;;;3.85;0.90;;;14.80;96.70;;;;;;5084914;28;20051;-76
2021/05/13 05:49:40;;;;;;;7.97;1.60;;;14.80;96.70;;;;;;5101051;28;20130;-76
2021/05/13 05:52:08;;;;;;;5.18;1.17;;;14.70;96.70;;;;;;5101311;28;20473;-77
2021/05/13 05:54:37;;;;;;;7.45;1.67;;;14.80;96.70;;;;;;5100416;28;20058;-76
2021/05/13 05:57:06;;;;;;;7.55;1.30;;;14.80;96.70;;;;;;5100308;28;20467;-76
2021/05/13 05:59:34;;;;;;;4.78;1.20;;;14.90;96.70;;;;;;5101903;28;20065;-76
2021/05/13 06:02:02;;;;;;;4.85;1.27;;;14.90;96.70;;;;;;5101054;28;20043;-77
2021/05/13 06:04:30;;;;;;;9.27;1.75;;;14.90;96.70;;;;;;5102588;28;20044;-76
2021/05/13 06:06:59;;;;;;;7.93;1.88;;;15.00;96.70;;;;;;5084191;28;20070;-76
2021/05/13 06:09:27;;;;;;;6.15;1.33;;;15.00;96.70;;;;;;5100556;28;20504;-76
2021/05/13 06:11:56;;;;;;;5.57;1.00;;;15.00;96.70;;;;;;5096620;28;20210;-76
2021/05/13 06:14:24;;;;;;;3.92;1.35;;;15.00;96.70;;;;;;5096949;27;20120;-76
2021/05/13 06:16:52;;;;;;;4.38;1.35;;;15.00;96.70;;;;;;5095466;28;20208;-76
2021/05/13 06:19:21;;;;;;;7.22;1.20;;;15.00;96.70;;;;;;5094703;28;20564;-76
2021/05/13 06:21:50;;;;;;;5.22;1.60;;;15.00;96.70;;;;;;5096899;28;20427;-76
2021/05/13 06:24:18;;;;;;;6.40;1.50;;;15.10;96.70;;;;;;5101927;28;20554;-76
2021/05/13 06:26:56;;;;;;;4.18;1.42;;;15.10;96.70;;;;;;5110005;27;20393;-76
2021/05/13 06:29:28;;;;;;;6.03;1.77;;;15.00;96.70;;;;;;5101354;28;20583;-75
2021/05/13 06:31:56;;;;;;;4.35;1.83;;;15.00;96.70;;;;;;5096925;28;20048;-76
2021/05/13 06:34:24;;;;;;;5.40;1.58;;;15.10;96.70;;;;;;5098263;28;20040;-76
2021/05/13 06:36:53;;;;;;;3.58;1.30;;;15.10;96.70;;;;;;5101301;28;20456;-76
2021/05/13 06:39:23;;;;;;;6.00;1.45;;;15.00;96.70;;;;;;5098397;28;20056;-76
2021/05/13 06:41:51;;;;;;;3.90;1.15;;;15.00;96.70;;;;;;5082374;28;20052;-76
2021/05/13 06:44:20;;;;;;;4.05;1.35;;;15.00;96.70;;;;;;5099119;28;20303;-76
2021/05/13 06:46:48;;;;;;;4.57;1.30;;;15.00;96.70;;;;;;5101408;28;20043;-76
2021/05/13 06:49:17;;;;;;;4.55;1.13;;;15.00;96.70;;;;;;5099064;28;20042;-76
2021/05/13 06:51:46;;;;;;;6.95;1.30;;;15.00;96.70;;;;;;5100472;28;20051;-75
2021/05/13 06:54:14;;;;;;;4.60;1.50;;;14.90;96.70;;;;;;5098676;28;20565;-75
2021/05/13 06:56:42;;;;;;;7.68;1.50;;;14.90;96.70;;;;;;5101180;28;20035;-75
2021/05/13 06:59:10;;;;;;;7.25;1.50;;;14.90;96.70;;;;;;5098263;28;20040;-76
2021/05/13 07:01:40;;;;;;;5.40;1.48;;;14.80;96.70;;;;;;5100769;28;20043;-75
2021/05/13 07:04:08;;;;;;;3.92;1.45;;;14.80;96.70;;;;;;5097132;28;20036;-76
2021/05/13 07:06:37;;;;;;;4.15;1.30;;;14.80;96.70;;;;;;5099847;28;20051;-76
2021/05/13 07:09:06;;;;;;;9.07;2.47;;;14.90;96.70;;;;;;5100827;28;20043;-76
2021/05/13 07:11:35;;;;;;;7.93;1.77;;;15.00;96.70;;;;;;5103028;28;20046;-76
2021/05/13 07:14:04;;;;;;;5.60;2.03;;;15.00;96.70;;;;;;5101582;28;20441;-75
2021/05/13 07:16:33;;;;;;;13.60;3.38;;;15.00;96.70;;;;;;5100909;28;20552;-75
2021/05/13 07:19:04;;;;;;;5.53;1.58;;;15.00;96.70;;;;;;5098271;28;20042;-76
2021/05/13 07:21:32;;;;;;;4.88;1.20;;;15.10;96.70;;;;;;5099447;28;20032;-76
2021/05/13 07:24:01;;;;;;;7.32;1.63;;;15.00;96.70;;;;;;5099586;28;20031;-75
2021/05/13 07:26:29;;;;;;;5.68;1.58;;;15.00;96.70;;;;;;5111168;27;20433;-76
2021/05/13 07:28:57;;;;;;;5.80;1.40;;;15.00;96.70;;;;;;5099564;28;20031;-75
2021/05/13 07:31:25;;;;;;;7.72;1.60;;;15.00;96.70;;;;;;5100422;28;20135;-75
2021/05/13 07:33:54;;;;;;;5.80;1.77;;;15.00;96.70;;;;;;5098697;28;20059;-76
2021/05/13 07:36:23;;;;;;;5.18;1.20;;;14.90;96.70;;;;;;5090105;28;20841;-76
2021/05/13 07:38:51;;;;;;;6.35;1.80;;;15.00;96.70;;;;;;5090470;28;20043;-76
2021/05/13 07:41:19;;;;;;;13.02;1.77;;;15.10;96.70;;;;;;5099174;28;20066;-76
2021/05/13 07:43:49;;;;;;;4.97;1.25;;;15.10;96.70;;;;;;5090173;28;20040;-76
2021/05/13 07:46:20;;;;;;;4.95;1.40;;;15.10;96.70;;;;;;5099219;28;20515;-76
2021/05/13 07:48:50;;;;;;;4.60;1.10;;;15.20;96.70;;;;;;5101594;28;20078;-76
2021/05/13 07:51:19;;;;;;;4.07;1.23;;;15.30;96.70;;;;;;5097021;28;20032;-76
2021/05/13 07:53:48;;;;;;;5.07;1.40;;;15.40;96.70;;;;;;5091657;28;20052;-76
2021/05/13 07:56:16;;;;;;;7.07;1.40;;;15.50;96.70;;;;;;5095235;28;20131;-76
2021/05/13 07:58:44;;;;;;;4.70;1.20;;;15.70;96.70;;;;;;5101710;28;20039;-76
2021/05/13 08:01:12;;;;;;;4.25;1.55;;;15.90;96.70;;;;;;5097147;28;20485;-76
2021/05/13 08:03:41;;;;;;;5.68;1.10;;;15.90;96.70;;;;;;5096418;28;20048;-76
2021/05/13 08:06:11;;;;;;;6.18;1.65;;;16.00;96.70;;;;;;5093862;28;20039;-76
2021/05/13 08:08:39;;;;;;;4.55;1.17;;;16.10;96.70;;;;;;5096824;28;20042;-76
2021/05/13 08:11:09;;;;;;;4.03;1.50;;;16.00;96.70;;;;;;5099252;28;20062;-76
2021/05/13 08:13:37;;;;;;;4.82;1.40;;;16.00;96.70;;;;;;5105460;27;20081;-75
2021/05/13 08:16:06;;;;;;;7.53;1.60;;;16.10;96.70;;;;;;5102798;27;20051;-76
2021/05/13 08:18:34;;;;;;;5.63;1.75;;;16.20;96.70;;;;;;5100654;28;20050;-75
2021/05/13 08:21:03;;;;;;;5.93;1.50;;;16.40;96.70;;;;;;5099378;28;20046;-75
2021/05/13 08:23:32;;;;;;;3.65;1.30;;;16.60;96.70;;;;;;5103590;28;20039;-75
2021/05/13 08:26:00;;;;;;;6.60;1.45;;;16.70;96.70;;;;;;5087962;28;20035;-76
2021/05/13 08:28:29;;;;;;;4.78;1.35;;;16.70;96.70;;;;;;5105898;27;20066;-76
2021/05/13 08:30:58;;;;;;;4.63;1.10;;;16.60;96.70;;;;;;5104476;28;20327;-76
2021/05/13 08:33:26;;;;;;;4.38;1.10;;;16.60;96.70;;;;;;5103845;28;20126;-76
2021/05/13 08:35:54;;;;;;;7.65;1.23;;;16.70;96.70;;;;;;5102385;28;20089;-76
2021/05/13 08:38:23;;;;;;;4.15;1.42;;;16.70;96.70;;;;;;5102607;28;20123;-76
2021/05/13 08:40:51;;;;;;;4.20;1.42;;;16.80;96.70;;;;;;5084383;28;20500;-76
2021/05/13 08:43:24;;;;;;;5.20;1.10;;;16.80;96.70;;;;;;5103243;27;20477;-76
2021/05/13 08:45:56;;;;;;;3.58;1.20;;;16.90;96.70;;;;;;5102753;28;20046;-76
2021/05/13 08:48:26;;;;;;;4.90;1.35;;;16.90;96.70;;;;;;5098120;28;20044;-75
2021/05/13 08:50:55;;;;;;;5.72;1.10;;;16.90;96.70;;;;;;5096066;28;20064;-76
2021/05/13 08:53:24;;;;;;;4.82;1.08;;;16.90;96.70;;;;;;5103849;28;20048;-76
2021/05/13 08:55:52;;;;;;;6.18;1.10;;;16.80;96.70;;;;;;5102529;28;20059;-76
2021/05/13 08:58:21;;;;;;;7.22;1.98;;;16.80;96.70;;;;;;5104057;28;20480;-76
2021/05/13 09:00:54;;;;;;;5.65;1.20;;;16.90;96.70;;;;;;5096286;28;20052;-75
2021/05/13 09:03:35;;;;;;;4.07;1.10;;;16.80;96.70;;;;;;5100218;28;20051;-75
2021/05/13 09:06:04;;;;;;;4.18;1.33;;;16.70;96.70;;;;;;5100950;28;20508;-75
2021/05/13 09:08:33;;;;;;;3.22;0.90;;;16.60;96.70;;;;;;5100278;28;20093;-75
2021/05/13 09:11:19;;;;;;;6.50;1.10;;;16.50;96.70;;;;;;5097650;28;20043;-75
2021/05/13 09:13:59;;;;;;;6.25;1.20;;;16.50;96.70;;;;;;5098612;28;20054;-75
2021/05/13 09:16:30;;;;;;;5.80;1.30;;;16.40;96.70;;;;;;5098037;28;20054;-76
2021/05/13 09:18:59;;;;;;;6.50;1.13;;;16.30;96.70;;;;;;5102433;28;20117;-76
2021/05/13 09:21:27;;;;;;;5.97;1.52;;;16.20;96.70;;;;;;5102208;28;20430;-75
2021/05/13 09:23:56;;;;;;;6.13;1.50;;;16.20;96.70;;;;;;5092049;28;20036;-76
2021/05/13 09:26:24;;;;;;;4.78;1.60;;;16.20;96.70;;;;;;5102388;28;20066;-76
2021/05/13 09:29:10;;;;;;;5.00;1.33;;;16.20;96.70;;;;;;5095042;28;20118;-76
2021/05/13 09:31:42;;;;;;;7.22;1.45;;;16.30;96.70;;;;;;5104817;27;20035;-76
2021/05/13 09:34:11;;;;;;;4.88;1.02;;;16.30;96.70;;;;;;5098754;28;20054;-76
2021/05/13 09:36:40;;;;;;;10.60;2.28;;;16.40;96.70;;;;;;5084106;28;20135;-76
2021/05/13 09:39:22;;;;;;;5.63;1.27;;;16.50;96.70;;;;;;5101542;28;20078;-75
2021/05/13 09:42:01;;;;;;;5.57;1.52;;;16.60;96.70;;;;;;5101012;28;20044;-75
2021/05/13 09:44:34;;;;;;;3.90;1.45;;;16.70;96.70;;;;;;5116664;27;20042;-75
2021/05/13 09:47:14;;;;;;;4.95;1.35;;;16.90;96.70;;;;;;5101232;28;20050;-76
2021/05/13 09:49:58;;;;;;;6.20;1.50;;;17.10;96.70;;;;;;5101878;28;20043;-76
2021/05/13 09:52:47;;;;;;;4.10;1.48;;;17.30;96.70;;;;;;5099449;28;20170;-76
2021/05/13 09:55:24;;;;;;;7.80;1.75;;;17.50;96.70;;;;;;5101577;28;20150;-76
2021/05/13 09:57:59;;;;;;;5.05;1.50;;;17.70;96.70;;;;;;5100002;28;20158;-76
2021/05/13 10:00:41;;;;;;;6.97;1.63;;;17.90;96.70;;;;;;5102134;28;20061;-76
2021/05/13 10:03:13;;;;;;;5.30;1.40;;;18.10;96.70;;;;;;5101076;28;20105;-76
2021/05/13 10:05:43;;;;;;;8.18;1.70;;;18.30;96.70;;;;;;5100821;28;20492;-77
2021/05/13 10:08:12;;;;;;;6.80;1.83;;;18.30;96.70;;;;;;5093466;28;20036;-77
2021/05/13 10:10:41;;;;;;;5.72;1.80;;;18.20;96.70;;;;;;5100976;28;20113;-76
2021/05/13 10:13:10;;;;;;;5.75;2.00;;;18.40;96.70;;;;;;5097418;28;20136;-76
2021/05/13 10:15:40;;;;;;;6.18;1.80;;;18.50;96.70;;;;;;5102908;27;20036;-76
2021/05/13 10:18:18;;;;;;;9.82;2.38;;;18.70;96.70;;;;;;5102074;28;20047;-76
2021/05/13 10:20:52;;;;;;;6.15;1.83;;;18.70;96.70;;;;;;5098251;28;20039;-76
2021/05/13 10:23:21;;;;;;;6.55;2.17;;;18.70;96.70;;;;;;5115030;27;20483;-77
2021/05/13 10:25:51;;;;;;;8.48;1.70;;;18.70;96.70;;;;;;5099826;28;20064;-76
2021/05/13 10:28:27;;;;;;;11.18;2.00;;;18.30;96.70;;;;;;5095412;28;20127;-76
2021/05/13 10:31:02;;;;;;;7.97;1.55;;;17.90;96.70;;;;;;5100519;28;20462;-75
2021/05/13 10:33:47;;;;;;;6.93;1.70;;;18.10;96.70;;;;;;5098068;28;20700;-76
2021/05/13 10:36:21;;;;;;;6.43;1.63;;;18.30;96.70;;;;;;5094085;28;20040;-76
2021/05/13 10:38:53;;;;;;;8.82;2.08;;;18.30;96.70;;;;;;5096464;28;20582;-76
2021/05/13 10:41:33;;;;;;;4.95;1.50;;;18.30;96.70;;;;;;5081920;28;20079;-76
2021/05/13 10:44:34;;;;;;;5.97;2.10;;;18.50;96.70;;;;;;5089303;28;20031;-76
2021/05/13 10:47:04;;;;;;;8.23;1.58;;;18.50;96.70;;;;;;5081268;28;20043;-76
2021/05/13 10:49:45;;;;;;;11.88;2.25;;;18.40;96.70;;;;;;5094830;28;20040;-75
2021/05/13 10:52:39;;;;;;;8.70;1.70;;;18.30;96.70;;;;;;5093228;28;20032;-75
2021/05/13 10:55:10;;;;;;;6.60;1.02;;;18.20;96.70;;;;;;5094042;28;20044;-75
2021/05/13 10:57:52;;;;;;;10.02;1.27;;;18.10;96.70;;;;;;5101757;28;20055;-75
2021/05/13 11:00:28;;;;;;;7.45;1.38;;;18.00;96.70;;;;;;5100622;28;20135;-75
2021/05/13 11:02:57;;;;;;;7.00;1.10;;;18.20;96.70;;;;;;5095211;28;20055;-75
2021/05/13 11:05:41;;;;;;;9.10;1.45;;;18.20;96.70;;;;;;5098540;28;20485;-75
2021/05/13 11:08:27;;;;;;;6.90;1.23;;;18.00;96.70;;;;;;5098269;28;20044;-75
2021/05/13 11:10:59;;;;;;;6.07;1.02;;;18.20;96.70;;;;;;5100501;28;20047;-75
2021/05/13 11:13:45;;;;;;;5.47;1.10;;;18.00;96.70;;;;;;5097408;28;20050;-76
2021/05/13 11:16:54;;;;;;;6.80;1.85;;;18.10;96.70;;;;;;5096889;28;20094;-75
2021/05/13 11:19:25;;;;;;;5.00;0.73;;;18.00;96.70;;;;;;5094352;28;20066;-76
2021/05/13 11:22:00;;;;;;;5.38;0.80;;;18.50;96.70;;;;;;5085222;28;20049;-76
2021/05/13 11:24:40;;;;;;;9.68;1.33;;;18.80;96.70;;;;;;5098092;28;20044;-75
2021/05/13 11:27:11;;;;;;;9.02;1.45;;;18.60;96.70;;;;;;5082878;28;20047;-76
2021/05/13 11:29:50;;;;;;;6.15;1.15;;;18.20;96.70;;;;;;5096265;28;20048;-76
2021/05/13 11:32:20;;;;;;;5.90;1.08;;;18.30;96.70;;;;;;5100211;28;20079;-76
2021/05/13 11:34:50;;;;;;;4.55;1.13;;;18.70;96.70;;;;;;5108125;27;20073;-75
2021/05/13 11:37:35;;;;;;;5.78;1.63;;;19.00;96.70;;;;;;5097632;28;20039;-76
2021/05/13 11:40:28;;;;;;;6.65;1.25;;;19.20;96.70;;;;;;5098988;28;20088;-76
2021/05/13 11:43:34;;;;;;;6.60;1.08;;;19.30;96.70;;;;;;5094743;28;20070;-76
2021/05/13 11:46:05;;;;;;;8.70;1.10;;;19.40;96.70;;;;;;5101518;28;20044;-76
2021/05/13 11:48:35;;;;;;;6.32;1.20;;;19.30;96.70;;;;;;5102100;28;20039;-76
2021/05/13 11:51:06;;;;;;;2.67;0.73;;;19.10;96.60;;;;;;5086760;28;20137;-76
2021/05/13 11:53:37;;;;;;;5.97;0.95;;;19.30;96.70;;;;;;5097537;28;20117;-76
2021/05/13 11:56:07;;;;;;;8.20;1.38;;;19.30;96.20;;;;;;5095694;28;20519;-76
2021/05/13 11:58:47;;;;;;;8.07;1.50;;;19.00;96.00;;;;;;5100603;28;20550;-76
2021/05/13 12:01:24;;;;;;;4.38;0.77;;;18.90;96.60;;;;;;5101943;28;20043;-76
2021/05/13 12:03:59;;;;;;;3.33;0.70;;;18.70;96.70;;;;;;5099512;28;20053;-76
2021/05/13 12:06:29;;;;;;;7.22;1.00;;;18.50;96.70;;;;;;5103059;28;20404;-76
2021/05/13 12:09:00;;;;;;;7.00;1.52;;;18.90;96.70;;;;;;5085617;28;20489;-76
2021/05/13 12:11:29;;;;;;;7.45;1.70;;;19.40;96.70;;;;;;5102894;28;20463;-76
2021/05/13 12:13:58;;;;;;;8.80;1.85;;;19.10;96.70;;;;;;5104462;27;20040;-76
2021/05/13 12:16:27;;;;;;;8.40;1.75;;;19.30;96.70;;;;;;5100916;28;20035;-76
2021/05/13 12:19:00;;;;;;;8.82;1.45;;;19.00;96.70;;;;;;5095561;28;20039;-76
2021/05/13 12:21:28;;;;;;;8.60;1.13;;;19.10;96.70;;;;;;5102599;28;20144;-76
2021/05/13 12:23:58;;;;;;;7.65;1.17;;;19.40;95.60;;;;;;5087342;28;20036;-76
2021/05/13 12:26:30;;;;;;;12.55;1.63;;;19.80;94.40;;;;;;5098901;28;20468;-76
2021/05/13 12:28:58;;;;;;;5.63;1.10;;;19.80;94.10;;;;;;5099225;28;20043;-76
2021/05/13 12:31:29;;;;;;;10.30;1.60;;;19.70;95.40;;;;;;5104178;28;20097;-76
2021/05/13 12:34:01;;;;;;;9.38;1.38;;;19.60;96.70;;;;;;5102691;28;20043;-76
2021/05/13 12:36:29;;;;;;;9.70;1.30;;;19.60;96.20;;;;;;5101421;28;20121;-76
2021/05/13 12:38:59;;;;;;;8.27;1.63;;;19.40;96.70;;;;;;5106455;28;20500;-76
2021/05/13 12:41:28;;;;;;;7.30;1.52;;;19.40;96.30;;;;;;5103428;28;20493;-76
2021/05/13 12:44:09;;;;;;;7.70;1.40;;;19.50;96.70;;;;;;5087039;28;20158;-77
2021/05/13 12:46:46;;;;;;;7.35;1.55;;;19.90;96.00;;;;;;5103851;28;20040;-76
2021/05/13 12:49:20;;;;;;;7.50;1.30;;;19.70;94.50;;;;;;5102104;28;20049;-77
2021/05/13 12:52:03;;;;;;;7.78;1.63;;;19.80;94.50;;;;;;5101111;28;20046;-77
2021/05/13 12:54:34;;;;;;;6.18;1.70;;;19.60;93.80;;;;;;5100290;28;20508;-76
2021/05/13 12:57:11;;;;;;;9.32;1.45;;;19.60;94.40;;;;;;5102707;27;20079;-76
2021/05/13 12:59:40;;;;;;;6.18;1.35;;;19.70;95.00;;;;;;5062507;28;20155;-76
2021/05/13 13:02:08;;;;;;;12.45;2.10;;;19.70;95.00;;;;;;5098928;28;20035;-76
2021/05/13 13:04:47;;;;;;;6.80;1.65;;;19.90;93.70;;;;;;5096102;28;20050;-76
2021/05/13 13:07:16;;;;;;;11.25;2.42;;;19.90;93.30;;;;;;5105018;28;20048;-76
2021/05/13 13:09:45;;;;;;;7.93;1.55;;;19.50;92.80;;;;;;5102330;28;20297;-76
2021/05/13 13:12:15;;;;;;;8.75;1.83;;;19.10;93.80;;;;;;5103963;28;20047;-76
2021/05/13 13:14:46;;;;;;;7.47;1.63;;;19.20;93.90;;;;;;5084904;28;20044;-76
2021/05/13 13:17:19;;;;;;;10.32;1.85;;;19.80;93.70;;;;;;5102934;28;20864;-76
2021/05/13 13:20:01;;;;;;;9.40;2.28;;;19.60;95.00;;;;;;5101585;28;20044;-76